sensor_id;sensor_type;location;lat;lon;timestamp;pressure;altitude;pressure_sealevel;temperature;humidity
68594;BME280;55563;52.416;13.548;2024-03-06T00:01:40;101595.00;;;1.43;100.00
68594;BME280;55563;52.416;13.548;2024-03-06T00:03:40;101596.59;;;1.44;100.00
68594;BME280;55563;52.416;13.548;2024-03-06T00:05:41;101597.41;;;1.45;100.00
68594;BME280;55563;52.416;13.548;2024-03-06T00:07:41;101601.97;;;1.43;100.00
68594;BME280;55563;52.416;13.548;2024-03-06T00:09:42;101598.28;;;1.37;100.00
68594;BME280;55563;52.416;13.548;2024-03-06T00:11:43;101611.06;;;1.39;100.00
68594;BME280;55563;52.416;13.548;2024-03-06T00:13:44;101607.69;;;1.38;100.00
68594;BME280;55563;52.416;13.548;2024-03-06T00:15:48;101600.88;;;1.37;100.00
68594;BME280;55563;52.416;13.548;2024-03-06T00:17:48;101608.28;;;1.40;100.00
68594;BME280;55563;52.416;13.548;2024-03-06T00:19:49;101610.59;;;1.35;100.00
68594;BME280;55563;52.416;13.548;2024-03-06T00:21:50;101620.84;;;1.28;100.00
68594;BME280;55563;52.416;13.548;2024-03-06T00:23:50;101619.75;;;1.23;100.00
68594;BME280;55563;52.416;13.548;2024-03-06T00:25:51;101619.91;;;1.21;100.00
68594;BME280;55563;52.416;13.548;2024-03-06T00:27:52;101620.13;;;1.20;100.00
68594;BME280;55563;52.416;13.548;2024-03-06T00:29:52;101622.88;;;1.18;100.00
68594;BME280;55563;52.416;13.548;2024-03-06T00:31:53;101615.72;;;1.20;100.00
68594;BME280;55563;52.416;13.548;2024-03-06T00:33:54;101628.66;;;1.20;100.00
68594;BME280;55563;52.416;13.548;2024-03-06T00:35:54;101640.34;;;1.16;100.00
68594;BME280;55563;52.416;13.548;2024-03-06T00:37:55;101635.53;;;1.13;100.00
68594;BME280;55563;52.416;13.548;2024-03-06T00:39:55;101634.56;;;1.14;100.00
68594;BME280;55563;52.416;13.548;2024-03-06T00:41:56;101642.84;;;1.10;100.00
68594;BME280;55563;52.416;13.548;2024-03-06T00:43:57;101644.94;;;1.06;100.00
68594;BME280;55563;52.416;13.548;2024-03-06T00:45:57;101642.84;;;1.10;100.00
68594;BME280;55563;52.416;13.548;2024-03-06T00:48:00;101658.38;;;1.10;100.00
68594;BME280;55563;52.416;13.548;2024-03-06T00:50:01;101654.16;;;1.09;100.00
68594;BME280;55563;52.416;13.548;2024-03-06T00:52:01;101655.28;;;1.06;100.00
68594;BME280;55563;52.416;13.548;2024-03-06T00:54:02;101655.34;;;0.98;100.00
68594;BME280;55563;52.416;13.548;2024-03-06T00:56:03;101651.13;;;0.97;100.00
68594;BME280;55563;52.416;13.548;2024-03-06T00:58:04;101650.84;;;0.92;100.00
68594;BME280;55563;52.416;13.548;2024-03-06T01:00:07;101654.44;;;0.91;100.00
68594;BME280;55563;52.416;13.548;2024-03-06T01:02:11;101657.78;;;0.92;100.00
68594;BME280;55563;52.416;13.548;2024-03-06T01:04:11;101659.75;;;0.90;100.00
68594;BME280;55563;52.416;13.548;2024-03-06T01:06:12;101664.13;;;0.89;100.00
68594;BME280;55563;52.416;13.548;2024-03-06T01:08:13;101658.94;;;0.89;100.00
68594;BME280;55563;52.416;13.548;2024-03-06T01:10:13;101662.66;;;0.86;100.00
68594;BME280;55563;52.416;13.548;2024-03-06T01:12:14;101660.78;;;0.80;100.00
68594;BME280;55563;52.416;13.548;2024-03-06T01:14:15;101665.31;;;0.78;100.00
68594;BME280;55563;52.416;13.548;2024-03-06T01:16:17;101668.84;;;0.77;100.00
68594;BME280;55563;52.416;13.548;2024-03-06T01:18:17;101664.50;;;0.78;100.00
68594;BME280;55563;52.416;13.548;2024-03-06T01:20:18;101658.69;;;0.76;100.00
68594;BME280;55563;52.416;13.548;2024-03-06T01:22:18;101658.69;;;0.76;100.00
68594;BME280;55563;52.416;13.548;2024-03-06T01:24:19;101664.84;;;0.75;100.00
68594;BME280;55563;52.416;13.548;2024-03-06T01:26:19;101659.00;;;0.73;100.00
68594;BME280;55563;52.416;13.548;2024-03-06T01:28:20;101656.78;;;0.70;100.00
68594;BME280;55563;52.416;13.548;2024-03-06T01:30:21;101662.91;;;0.69;100.00
68594;BME280;55563;52.416;13.548;2024-03-06T01:32:21;101666.66;;;0.66;100.00
68594;BME280;55563;52.416;13.548;2024-03-06T01:34:22;101666.16;;;0.63;100.00
68594;BME280;55563;52.416;13.548;2024-03-06T01:36:23;101677.16;;;0.65;100.00
68594;BME280;55563;52.416;13.548;2024-03-06T01:38:23;101678.94;;;0.64;100.00
68594;BME280;55563;52.416;13.548;2024-03-06T01:40:24;101677.50;;;0.62;100.00
68594;BME280;55563;52.416;13.548;2024-03-06T01:42:25;101683.00;;;0.59;100.00
68594;BME280;55563;52.416;13.548;2024-03-06T01:44:25;101681.88;;;0.61;100.00
68594;BME280;55563;52.416;13.548;2024-03-06T01:46:26;101682.19;;;0.58;100.00
68594;BME280;55563;52.416;13.548;2024-03-06T01:48:28;101687.88;;;0.54;100.00
68594;BME280;55563;52.416;13.548;2024-03-06T01:50:29;101683.50;;;0.62;100.00
68594;BME280;55563;52.416;13.548;2024-03-06T01:52:30;101689.16;;;0.58;100.00
68594;BME280;55563;52.416;13.548;2024-03-06T01:54:31;101695.94;;;0.59;100.00
68594;BME280;55563;52.416;13.548;2024-03-06T01:56:34;101693.03;;;0.62;100.00
68594;BME280;55563;52.416;13.548;2024-03-06T01:58:35;101691.09;;;0.56;100.00
68594;BME280;55563;52.416;13.548;2024-03-06T02:00:36;101694.03;;;0.53;100.00
68594;BME280;55563;52.416;13.548;2024-03-06T02:02:37;101693.72;;;0.48;100.00
68594;BME280;55563;52.416;13.548;2024-03-06T02:04:38;101687.75;;;0.47;100.00
68594;BME280;55563;52.416;13.548;2024-03-06T02:06:39;101690.50;;;0.46;100.00
68594;BME280;55563;52.416;13.548;2024-03-06T02:08:41;101685.31;;;0.46;100.00
68594;BME280;55563;52.416;13.548;2024-03-06T02:10:41;101683.53;;;0.46;100.00
68594;BME280;55563;52.416;13.548;2024-03-06T02:12:44;101679.63;;;0.50;100.00
68594;BME280;55563;52.416;13.548;2024-03-06T02:14:45;101684.66;;;0.52;100.00
68594;BME280;55563;52.416;13.548;2024-03-06T02:16:46;101677.41;;;0.47;100.00
68594;BME280;55563;52.416;13.548;2024-03-06T02:18:55;101687.72;;;0.55;100.00
68594;BME280;55563;52.416;13.548;2024-03-06T02:20:56;101685.59;;;0.59;100.00
68594;BME280;55563;52.416;13.548;2024-03-06T02:22:57;101694.31;;;0.66;100.00
68594;BME280;55563;52.416;13.548;2024-03-06T02:24:58;101695.13;;;0.66;100.00
68594;BME280;55563;52.416;13.548;2024-03-06T02:26:58;101698.84;;;0.64;100.00
68594;BME280;55563;52.416;13.548;2024-03-06T02:28:59;101702.88;;;0.58;100.00
68594;BME280;55563;52.416;13.548;2024-03-06T02:31:00;101700.13;;;0.60;100.00
68594;BME280;55563;52.416;13.548;2024-03-06T02:33:00;101699.84;;;0.55;100.00
68594;BME280;55563;52.416;13.548;2024-03-06T02:35:02;101692.72;;;0.49;100.00
68594;BME280;55563;52.416;13.548;2024-03-06T02:37:03;101694.84;;;0.45;100.00
68594;BME280;55563;52.416;13.548;2024-03-06T02:39:04;101692.75;;;0.40;100.00
68594;BME280;55563;52.416;13.548;2024-03-06T02:41:09;101693.41;;;0.34;100.00
68594;BME280;55563;52.416;13.548;2024-03-06T02:43:10;101697.78;;;0.34;100.00
68594;BME280;55563;52.416;13.548;2024-03-06T02:45:11;101696.19;;;0.33;100.00
68594;BME280;55563;52.416;13.548;2024-03-06T02:47:12;101700.22;;;0.35;100.00
68594;BME280;55563;52.416;13.548;2024-03-06T02:49:12;101696.81;;;0.35;100.00
68594;BME280;55563;52.416;13.548;2024-03-06T02:51:18;101698.59;;;0.34;100.00
68594;BME280;55563;52.416;13.548;2024-03-06T02:53:18;101699.59;;;0.33;100.00
68594;BME280;55563;52.416;13.548;2024-03-06T02:55:19;101705.53;;;0.34;100.00
68594;BME280;55563;52.416;13.548;2024-03-06T02:57:20;101699.41;;;0.27;100.00
68594;BME280;55563;52.416;13.548;2024-03-06T02:59:20;101693.59;;;0.25;100.00
68594;BME280;55563;52.416;13.548;2024-03-06T03:01:21;101696.19;;;0.25;100.00
68594;BME280;55563;52.416;13.548;2024-03-06T03:03:24;101707.19;;;0.19;100.00
68594;BME280;55563;52.416;13.548;2024-03-06T03:05:25;101708.47;;;0.15;100.00
68594;BME280;55563;52.416;13.548;2024-03-06T03:07:26;101712.19;;;0.12;100.00
68594;BME280;55563;52.416;13.548;2024-03-06T03:09:26;101703.63;;;0.12;100.00
68594;BME280;55563;52.416;13.548;2024-03-06T03:11:27;101704.44;;;0.12;100.00
68594;BME280;55563;52.416;13.548;2024-03-06T03:13:27;101706.56;;;0.09;100.00
68594;BME280;55563;52.416;13.548;2024-03-06T03:15:28;101702.84;;;0.11;100.00
68594;BME280;55563;52.416;13.548;2024-03-06T03:17:29;101709.28;;;0.15;100.00
68594;BME280;55563;52.416;13.548;2024-03-06T03:19:29;101713.31;;;0.10;100.00
68594;BME280;55563;52.416;13.548;2024-03-06T03:21:30;101708.97;;;0.10;100.00
68594;BME280;55563;52.416;13.548;2024-03-06T03:23:31;101713.63;;;0.15;100.00
68594;BME280;55563;52.416;13.548;2024-03-06T03:25:31;101717.38;;;0.12;100.00
68594;BME280;55563;52.416;13.548;2024-03-06T03:27:33;101718.03;;;0.14;100.00
68594;BME280;55563;52.416;13.548;2024-03-06T03:29:33;101720.44;;;0.08;100.00
68594;BME280;55563;52.416;13.548;2024-03-06T03:31:34;101726.59;;;0.07;100.00
68594;BME280;55563;52.416;13.548;2024-03-06T03:33:40;101727.72;;;0.04;100.00
68594;BME280;55563;52.416;13.548;2024-03-06T03:35:41;101724.81;;;-0.01;100.00
68594;BME280;55563;52.416;13.548;2024-03-06T03:37:42;101730.47;;;-0.06;100.00
68594;BME280;55563;52.416;13.548;2024-03-06T03:39:44;101737.75;;;-0.01;100.00
68594;BME280;55563;52.416;13.548;2024-03-06T03:41:46;101740.47;;;-0.03;100.00
68594;BME280;55563;52.416;13.548;2024-03-06T03:43:47;101738.56;;;-0.01;100.00
68594;BME280;55563;52.416;13.548;2024-03-06T03:45:47;101742.44;;;0.04;100.00
68594;BME280;55563;52.416;13.548;2024-03-06T03:47:48;101743.22;;;0.04;100.00
68594;BME280;55563;52.416;13.548;2024-03-06T03:49:48;101750.47;;;0.00;100.00
68594;BME280;55563;52.416;13.548;2024-03-06T03:51:49;101750.81;;;-0.03;100.00
68594;BME280;55563;52.416;13.548;2024-03-06T03:53:50;101754.06;;;-0.01;100.00
68594;BME280;55563;52.416;13.548;2024-03-06T03:55:53;101751.78;;;0.05;100.00
68594;BME280;55563;52.416;13.548;2024-03-06T03:57:53;101748.72;;;0.09;100.00
68594;BME280;55563;52.416;13.548;2024-03-06T03:59:54;101750.66;;;0.07;100.00
68594;BME280;55563;52.416;13.548;2024-03-06T04:01:55;101757.25;;;0.10;100.00
68594;BME280;55563;52.416;13.548;2024-03-06T04:03:57;101766.16;;;0.07;100.00
68594;BME280;55563;52.416;13.548;2024-03-06T04:05:58;101752.75;;;0.04;100.00
68594;BME280;55563;52.416;13.548;2024-03-06T04:07:58;101756.31;;;0.03;100.00
68594;BME280;55563;52.416;13.548;2024-03-06T04:09:59;101754.88;;;0.00;100.00
68594;BME280;55563;52.416;13.548;2024-03-06T04:11:59;101758.56;;;-0.03;100.00
68594;BME280;55563;52.416;13.548;2024-03-06T04:14:00;101755.03;;;-0.02;100.00
68594;BME280;55563;52.416;13.548;2024-03-06T04:16:01;101748.72;;;-0.07;100.00
68594;BME280;55563;52.416;13.548;2024-03-06T04:18:02;101751.63;;;-0.02;100.00
68594;BME280;55563;52.416;13.548;2024-03-06T04:20:03;101752.09;;;-0.07;100.00
68594;BME280;55563;52.416;13.548;2024-03-06T04:22:06;101759.19;;;-0.09;100.00
68594;BME280;55563;52.416;13.548;2024-03-06T04:24:07;101756.47;;;-0.07;100.00
68594;BME280;55563;52.416;13.548;2024-03-06T04:26:07;101747.09;;;-0.08;100.00
68594;BME280;55563;52.416;13.548;2024-03-06T04:28:08;101756.47;;;-0.07;100.00
68594;BME280;55563;52.416;13.548;2024-03-06T04:30:09;101757.59;;;-0.10;100.00
68594;BME280;55563;52.416;13.548;2024-03-06T04:32:10;101756.00;;;-0.11;100.00
68594;BME280;55563;52.416;13.548;2024-03-06T04:34:10;101755.03;;;-0.10;100.00
68594;BME280;55563;52.416;13.548;2024-03-06T04:36:11;101753.41;;;-0.11;100.00
68594;BME280;55563;52.416;13.548;2024-03-06T04:38:11;101764.38;;;-0.09;100.00
68594;BME280;55563;52.416;13.548;2024-03-06T04:40:12;101767.75;;;-0.08;100.00
68594;BME280;55563;52.416;13.548;2024-03-06T04:42:15;101764.56;;;-0.10;100.00
68594;BME280;55563;52.416;13.548;2024-03-06T04:44:16;101779.25;;;-0.11;100.00
68594;BME280;55563;52.416;13.548;2024-03-06T04:46:16;101770.03;;;-0.13;100.00
68594;BME280;55563;52.416;13.548;2024-03-06T04:48:17;101773.41;;;-0.13;100.00
68594;BME280;55563;52.416;13.548;2024-03-06T04:50:18;101776.97;;;-0.14;100.00
68594;BME280;55563;52.416;13.548;2024-03-06T04:52:18;101769.88;;;-0.12;100.00
68594;BME280;55563;52.416;13.548;2024-03-06T04:54:19;101776.00;;;-0.13;100.00
68594;BME280;55563;52.416;13.548;2024-03-06T04:56:20;101771.31;;;-0.09;100.00
68594;BME280;55563;52.416;13.548;2024-03-06T04:58:22;101785.38;;;-0.04;100.00
68594;BME280;55563;52.416;13.548;2024-03-06T05:00:23;101780.38;;;-0.05;100.00
68594;BME280;55563;52.416;13.548;2024-03-06T05:02:24;101792.16;;;-0.03;100.00
68594;BME280;55563;52.416;13.548;2024-03-06T05:04:26;101792.81;;;-0.01;100.00
68594;BME280;55563;52.416;13.548;2024-03-06T05:06:26;101798.78;;;0.00;100.00
68594;BME280;55563;52.416;13.548;2024-03-06T05:08:27;101803.63;;;0.03;100.00
68594;BME280;55563;52.416;13.548;2024-03-06T05:10:28;101795.72;;;0.05;100.00
68594;BME280;55563;52.416;13.548;2024-03-06T05:12:28;101799.91;;;0.06;100.00
68594;BME280;55563;52.416;13.548;2024-03-06T05:14:29;101800.72;;;0.06;100.00
68594;BME280;55563;52.416;13.548;2024-03-06T05:16:29;101805.25;;;0.04;100.00
68594;BME280;55563;52.416;13.548;2024-03-06T05:18:30;101805.75;;;-0.01;100.00
68594;BME280;55563;52.416;13.548;2024-03-06T05:20:31;101810.91;;;-0.01;100.00
68594;BME280;55563;52.416;13.548;2024-03-06T05:22:32;101820.91;;;-0.06;100.00
68594;BME280;55563;52.416;13.548;2024-03-06T05:24:32;101822.19;;;-0.02;100.00
68594;BME280;55563;52.416;13.548;2024-03-06T05:26:33;101826.91;;;-0.05;100.00
68594;BME280;55563;52.416;13.548;2024-03-06T05:28:35;101827.19;;;-0.08;100.00
68594;BME280;55563;52.416;13.548;2024-03-06T05:30:35;101827.19;;;-0.08;100.00
68594;BME280;55563;52.416;13.548;2024-03-06T05:32:37;101826.56;;;-0.10;100.00
68594;BME280;55563;52.416;13.548;2024-03-06T05:34:37;101841.72;;;-0.07;100.00
68594;BME280;55563;52.416;13.548;2024-03-06T05:36:38;101836.91;;;-0.10;100.00
68594;BME280;55563;52.416;13.548;2024-03-06T05:38:39;101847.53;;;-0.13;100.00
68594;BME280;55563;52.416;13.548;2024-03-06T05:40:39;101847.84;;;-0.16;100.00
68594;BME280;55563;52.416;13.548;2024-03-06T05:42:41;101849.47;;;-0.15;100.00
68594;BME280;55563;52.416;13.548;2024-03-06T05:44:43;101851.06;;;-0.14;100.00
68594;BME280;55563;52.416;13.548;2024-03-06T05:46:43;101853.66;;;-0.14;100.00
68594;BME280;55563;52.416;13.548;2024-03-06T05:48:44;101846.91;;;-0.15;100.00
68594;BME280;55563;52.416;13.548;2024-03-06T05:50:44;101857.88;;;-0.13;100.00
68594;BME280;55563;52.416;13.548;2024-03-06T05:52:45;101858.03;;;-0.15;100.00
68594;BME280;55563;52.416;13.548;2024-03-06T05:54:45;101857.25;;;-0.07;100.00
68594;BME280;55563;52.416;13.548;2024-03-06T05:56:48;101865.47;;;-0.04;100.00
68594;BME280;55563;52.416;13.548;2024-03-06T05:58:49;101867.56;;;0.01;100.00
68594;BME280;55563;52.416;13.548;2024-03-06T06:00:50;101869.88;;;0.04;100.00
68594;BME280;55563;52.416;13.548;2024-03-06T06:02:51;101872.28;;;0.06;100.00
68594;BME280;55563;52.416;13.548;2024-03-06T06:04:51;101878.09;;;-0.01;100.00
68594;BME280;55563;52.416;13.548;2024-03-06T06:06:52;101871.59;;;-0.05;100.00
68594;BME280;55563;52.416;13.548;2024-03-06T06:08:53;101867.91;;;-0.02;100.00
68594;BME280;55563;52.416;13.548;2024-03-06T06:10:53;101873.22;;;-0.04;100.00
68594;BME280;55563;52.416;13.548;2024-03-06T06:12:55;101876.16;;;0.02;100.00
68594;BME280;55563;52.416;13.548;2024-03-06T06:14:56;101885.66;;;0.01;100.00
68594;BME280;55563;52.416;13.548;2024-03-06T06:16:56;101882.28;;;0.00;100.00
68594;BME280;55563;52.416;13.548;2024-03-06T06:18:57;101887.44;;;0.00;100.00
68594;BME280;55563;52.416;13.548;2024-03-06T06:20:58;101891.66;;;0.02;100.00
68594;BME280;55563;52.416;13.548;2024-03-06T06:22:59;101896.19;;;-0.01;100.00
68594;BME280;55563;52.416;13.548;2024-03-06T06:24:59;101898.13;;;0.06;100.00
68594;BME280;55563;52.416;13.548;2024-03-06T06:27:00;101898.63;;;0.09;100.00
68594;BME280;55563;52.416;13.548;2024-03-06T06:29:01;101895.72;;;0.12;100.00
68594;BME280;55563;52.416;13.548;2024-03-06T06:31:01;101907.50;;;0.15;100.00
68594;BME280;55563;52.416;13.548;2024-03-06T06:33:02;101904.78;;;0.16;100.00
68594;BME280;55563;52.416;13.548;2024-03-06T06:35:04;101910.41;;;0.20;100.00
68594;BME280;55563;52.416;13.548;2024-03-06T06:37:05;101909.16;;;0.24;100.00
68594;BME280;55563;52.416;13.548;2024-03-06T06:39:05;101911.28;;;0.28;100.00
68594;BME280;55563;52.416;13.548;2024-03-06T06:41:06;101919.50;;;0.32;100.00
68594;BME280;55563;52.416;13.548;2024-03-06T06:43:07;101920.94;;;0.34;100.00
68594;BME280;55563;52.416;13.548;2024-03-06T06:45:07;101915.97;;;0.33;100.00
68594;BME280;55563;52.416;13.548;2024-03-06T06:47:10;101915.28;;;0.39;100.00
68594;BME280;55563;52.416;13.548;2024-03-06T06:49:10;101918.22;;;0.36;100.00
68594;BME280;55563;52.416;13.548;2024-03-06T06:51:11;101921.13;;;0.33;100.00
68594;BME280;55563;52.416;13.548;2024-03-06T06:53:11;101925.81;;;0.37;100.00
68594;BME280;55563;52.416;13.548;2024-03-06T06:55:12;101927.94;;;0.42;100.00
68594;BME280;55563;52.416;13.548;2024-03-06T06:57:13;101936.50;;;0.42;100.00
68594;BME280;55563;52.416;13.548;2024-03-06T06:59:14;101926.63;;;0.54;100.00
68594;BME280;55563;52.416;13.548;2024-03-06T07:01:15;101934.88;;;0.58;100.00
68594;BME280;55563;52.416;13.548;2024-03-06T07:03:17;101940.53;;;0.53;100.00
68594;BME280;55563;52.416;13.548;2024-03-06T07:05:18;101939.75;;;0.61;100.00
68594;BME280;55563;52.416;13.548;2024-03-06T07:07:19;101943.94;;;0.62;100.00
68594;BME280;55563;52.416;13.548;2024-03-06T07:09:20;101942.97;;;0.63;100.00
68594;BME280;55563;52.416;13.548;2024-03-06T07:11:20;101944.44;;;0.65;100.00
68594;BME280;55563;52.416;13.548;2024-03-06T07:13:22;101945.56;;;0.71;100.00
68594;BME280;55563;52.416;13.548;2024-03-06T07:15:22;101956.06;;;0.69;100.00
68594;BME280;55563;52.416;13.548;2024-03-06T07:17:23;101952.66;;;0.77;100.00
68594;BME280;55563;52.416;13.548;2024-03-06T07:19:24;101952.22;;;0.81;100.00
68594;BME280;55563;52.416;13.548;2024-03-06T07:21:25;101951.69;;;0.78;100.00
68594;BME280;55563;52.416;13.548;2024-03-06T07:23:26;101952.84;;;0.83;100.00
68594;BME280;55563;52.416;13.548;2024-03-06T07:25:26;101956.91;;;0.86;100.00
68594;BME280;55563;52.416;13.548;2024-03-06T07:27:27;101960.25;;;0.86;100.00
68594;BME280;55563;52.416;13.548;2024-03-06T07:29:28;101963.66;;;0.87;100.00
68594;BME280;55563;52.416;13.548;2024-03-06T07:31:29;101963.03;;;0.93;100.00
68594;BME280;55563;52.416;13.548;2024-03-06T07:33:30;101964.50;;;0.96;100.00
68594;BME280;55563;52.416;13.548;2024-03-06T07:35:31;101966.56;;;0.92;100.00
68594;BME280;55563;52.416;13.548;2024-03-06T07:37:32;101965.59;;;1.01;100.00
68594;BME280;55563;52.416;13.548;2024-03-06T07:39:34;101977.28;;;1.05;100.00
68594;BME280;55563;52.416;13.548;2024-03-06T07:41:35;101977.59;;;1.02;100.00
68594;BME280;55563;52.416;13.548;2024-03-06T07:43:36;101977.75;;;1.09;100.00
68594;BME280;55563;52.416;13.548;2024-03-06T07:45:36;101968.53;;;1.14;100.00
68594;BME280;55563;52.416;13.548;2024-03-06T07:47:37;101966.56;;;1.16;100.00
68594;BME280;55563;52.416;13.548;2024-03-06T07:49:37;101970.94;;;1.16;100.00
68594;BME280;55563;52.416;13.548;2024-03-06T07:51:38;101972.06;;;1.21;100.00
68594;BME280;55563;52.416;13.548;2024-03-06T07:53:41;101980.16;;;1.18;100.00
68594;BME280;55563;52.416;13.548;2024-03-06T07:55:41;101978.88;;;1.22;100.00
68594;BME280;55563;52.416;13.548;2024-03-06T07:57:42;101984.53;;;1.34;100.00
68594;BME280;55563;52.416;13.548;2024-03-06T07:59:42;101992.78;;;1.38;100.00
68594;BME280;55563;52.416;13.548;2024-03-06T08:01:43;101989.69;;;1.42;100.00
68594;BME280;55563;52.416;13.548;2024-03-06T08:03:44;101990.00;;;1.47;100.00
68594;BME280;55563;52.416;13.548;2024-03-06T08:05:44;101988.53;;;1.53;100.00
68594;BME280;55563;52.416;13.548;2024-03-06T08:07:45;101994.19;;;1.56;100.00
68594;BME280;55563;52.416;13.548;2024-03-06T08:09:46;101994.34;;;1.63;100.00
68594;BME280;55563;52.416;13.548;2024-03-06T08:11:46;102000.81;;;1.67;100.00
68594;BME280;55563;52.416;13.548;2024-03-06T08:13:48;101996.09;;;1.70;100.00
68594;BME280;55563;52.416;13.548;2024-03-06T08:15:49;101992.84;;;1.77;100.00
68594;BME280;55563;52.416;13.548;2024-03-06T08:17:50;101991.41;;;1.66;100.00
68594;BME280;55563;52.416;13.548;2024-03-06T08:19:52;101995.94;;;1.72;100.00
68594;BME280;55563;52.416;13.548;2024-03-06T08:21:53;101994.94;;;1.73;100.00
68594;BME280;55563;52.416;13.548;2024-03-06T08:23:54;102001.59;;;1.75;100.00
68594;BME280;55563;52.416;13.548;2024-03-06T08:25:55;101999.19;;;1.66;100.00
68594;BME280;55563;52.416;13.548;2024-03-06T08:27:56;101995.41;;;1.85;100.00
68594;BME280;55563;52.416;13.548;2024-03-06T08:29:57;101995.19;;;1.94;100.00
68594;BME280;55563;52.416;13.548;2024-03-06T08:31:57;102001.63;;;2.06;100.00
68594;BME280;55563;52.416;13.548;2024-03-06T08:34:00;102000.88;;;2.29;100.00
68594;BME280;55563;52.416;13.548;2024-03-06T08:36:00;102005.97;;;2.45;100.00
68594;BME280;55563;52.416;13.548;2024-03-06T08:38:01;102012.69;;;2.62;100.00
68594;BME280;55563;52.416;13.548;2024-03-06T08:40:02;102010.63;;;2.57;100.00
68594;BME280;55563;52.416;13.548;2024-03-06T08:42:03;102012.19;;;2.67;100.00
68594;BME280;55563;52.416;13.548;2024-03-06T08:44:04;102011.94;;;2.76;100.00
68594;BME280;55563;52.416;13.548;2024-03-06T08:46:05;102016.25;;;2.84;100.00
68594;BME280;55563;52.416;13.548;2024-03-06T08:48:06;102011.66;;;2.71;100.00
68594;BME280;55563;52.416;13.548;2024-03-06T08:50:07;102013.28;;;2.72;100.00
68594;BME280;55563;52.416;13.548;2024-03-06T08:52:08;102016.16;;;2.77;100.00
68594;BME280;55563;52.416;13.548;2024-03-06T08:54:10;102015.53;;;2.75;100.00
68594;BME280;55563;52.416;13.548;2024-03-06T08:56:11;102015.28;;;2.85;100.00
68594;BME280;55563;52.416;13.548;2024-03-06T08:58:11;102020.91;;;2.96;100.00
68594;BME280;55563;52.416;13.548;2024-03-06T09:00:14;102019.41;;;3.02;100.00
68594;BME280;55563;52.416;13.548;2024-03-06T09:02:18;102024.59;;;3.02;100.00
68594;BME280;55563;52.416;13.548;2024-03-06T09:04:20;102021.47;;;3.06;100.00
68594;BME280;55563;52.416;13.548;2024-03-06T09:06:20;102022.53;;;3.12;100.00
68594;BME280;55563;52.416;13.548;2024-03-06T09:08:21;102021.84;;;3.18;100.00
68594;BME280;55563;52.416;13.548;2024-03-06T09:10:21;102019.63;;;3.30;100.00
68594;BME280;55563;52.416;13.548;2024-03-06T09:12:22;102020.38;;;3.38;100.00
68594;BME280;55563;52.416;13.548;2024-03-06T09:14:23;102022.06;;;3.46;100.00
68594;BME280;55563;52.416;13.548;2024-03-06T09:16:23;102020.84;;;3.57;100.00
68594;BME280;55563;52.416;13.548;2024-03-06T09:18:24;102030.63;;;3.69;100.00
68594;BME280;55563;52.416;13.548;2024-03-06T09:20:25;102026.31;;;3.76;100.00
68594;BME280;55563;52.416;13.548;2024-03-06T09:22:26;102024.53;;;3.91;100.00
68594;BME280;55563;52.416;13.548;2024-03-06T09:24:27;102022.47;;;3.87;100.00
68594;BME280;55563;52.416;13.548;2024-03-06T09:26:28;102022.53;;;3.93;100.00
68594;BME280;55563;52.416;13.548;2024-03-06T09:28:28;102027.00;;;4.14;100.00
68594;BME280;55563;52.416;13.548;2024-03-06T09:30:30;102032.75;;;4.24;100.00
68594;BME280;55563;52.416;13.548;2024-03-06T09:32:30;102040.09;;;4.35;100.00
68594;BME280;55563;52.416;13.548;2024-03-06T09:34:31;102028.50;;;4.38;100.00
68594;BME280;55563;52.416;13.548;2024-03-06T09:36:31;102031.97;;;4.60;100.00
68594;BME280;55563;52.416;13.548;2024-03-06T09:38:33;102021.97;;;4.63;100.00
68594;BME280;55563;52.416;13.548;2024-03-06T09:40:34;102032.69;;;4.75;100.00
68594;BME280;55563;52.416;13.548;2024-03-06T09:42:35;102033.75;;;4.80;100.00
68594;BME280;55563;52.416;13.548;2024-03-06T09:44:35;102038.91;;;4.74;100.00
68594;BME280;55563;52.416;13.548;2024-03-06T09:46:36;102032.38;;;4.84;100.00
68594;BME280;55563;52.416;13.548;2024-03-06T09:48:46;102036.03;;;4.90;100.00
68594;BME280;55563;52.416;13.548;2024-03-06T09:50:48;102033.06;;;5.14;100.00
68594;BME280;55563;52.416;13.548;2024-03-06T09:52:51;102036.72;;;5.20;100.00
68594;BME280;55563;52.416;13.548;2024-03-06T09:54:54;102028.34;;;5.24;100.00
68594;BME280;55563;52.416;13.548;2024-03-06T09:56:56;102027.84;;;5.42;100.00
68594;BME280;55563;52.416;13.548;2024-03-06T09:58:58;102030.53;;;5.49;100.00
68594;BME280;55563;52.416;13.548;2024-03-06T10:00:59;102025.81;;;5.65;100.00
68594;BME280;55563;52.416;13.548;2024-03-06T10:03:03;102029.09;;;5.81;100.00
68594;BME280;55563;52.416;13.548;2024-03-06T10:05:09;102026.88;;;5.78;100.00
68594;BME280;55563;52.416;13.548;2024-03-06T10:07:20;102029.63;;;5.97;100.00
68594;BME280;55563;52.416;13.548;2024-03-06T10:09:21;102026.97;;;5.91;100.00
68594;BME280;55563;52.416;13.548;2024-03-06T10:11:22;102028.19;;;5.88;100.00
68594;BME280;55563;52.416;13.548;2024-03-06T10:13:24;102027.47;;;6.07;100.00
68594;BME280;55563;52.416;13.548;2024-03-06T10:15:24;102015.66;;;6.11;100.00
68594;BME280;55563;52.416;13.548;2024-03-06T10:17:26;102017.03;;;6.07;100.00
68594;BME280;55563;52.416;13.548;2024-03-06T10:19:29;102014.91;;;6.31;100.00
68594;BME280;55563;52.416;13.548;2024-03-06T10:21:31;102015.94;;;6.36;100.00
68594;BME280;55563;52.416;13.548;2024-03-06T10:23:34;102019.59;;;6.42;100.00